ADDS TAF Data INFO
IDs: Format: Raw Decoded Include METARs

Data at: 2019 UTC 25 Apr 2018

KINW 251956Z AUTO VRB03G14KT 10SM CLR 25/M07 A3018 RMK AO2 SLP162 T02501067

KINW 251722Z 2518/2618 03010KT P6SM SCT200
  FM260400 23005KT P6SM FEW120 SCT200